sensor_id;sensor_type;location;lat;lon;timestamp;pressure;altitude;pressure_sealevel;temperature;humidity
49459;BME280;35354;51.296;16.924;2023-03-04T00:01:35;99761.22;;;1.54;97.65
49459;BME280;35354;51.296;16.924;2023-03-04T00:04:01;99738.09;;;1.57;97.56
49459;BME280;35354;51.296;16.924;2023-03-04T00:06:26;99739.78;;;1.60;97.09
49459;BME280;35354;51.296;16.924;2023-03-04T00:08:51;99710.84;;;1.44;97.02
49459;BME280;35354;51.296;16.924;2023-03-04T00:11:17;99732.94;;;1.62;97.77
49459;BME280;35354;51.296;16.924;2023-03-04T00:13:42;99690.41;;;1.32;97.46
49459;BME280;35354;51.296;16.924;2023-03-04T00:16:07;99717.53;;;1.59;97.11
49459;BME280;35354;51.296;16.924;2023-03-04T00:18:33;99689.38;;;1.53;97.05
49459;BME280;35354;51.296;16.924;2023-03-04T00:20:58;99712.31;;;1.68;97.08
49459;BME280;35354;51.296;16.924;2023-03-04T00:23:23;99685.09;;;1.52;96.92
49459;BME280;35354;51.296;16.924;2023-03-04T00:25:49;99674.88;;;1.45;97.38
49459;BME280;35354;51.296;16.924;2023-03-04T00:28:14;99671.47;;;1.48;97.03
49459;BME280;35354;51.296;16.924;2023-03-04T00:30:39;99688.44;;;1.60;97.70
49459;BME280;35354;51.296;16.924;2023-03-04T00:33:05;99695.25;;;1.62;97.45
49459;BME280;35354;51.296;16.924;2023-03-04T00:35:30;99699.53;;;1.65;97.31
49459;BME280;35354;51.296;16.924;2023-03-04T00:37:55;99691.00;;;1.60;97.35
49459;BME280;35354;51.296;16.924;2023-03-04T00:40:21;99667.13;;;1.53;97.60
49459;BME280;35354;51.296;16.924;2023-03-04T00:42:46;99660.28;;;1.54;97.96
49459;BME280;35354;51.296;16.924;2023-03-04T00:45:11;99658.53;;;1.54;97.71
49459;BME280;35354;51.296;16.924;2023-03-04T00:47:37;99659.38;;;1.58;97.67
49459;BME280;35354;51.296;16.924;2023-03-04T00:50:02;99686.63;;;1.71;97.59
49459;BME280;35354;51.296;16.924;2023-03-04T00:52:28;99648.34;;;1.48;97.96
49459;BME280;35354;51.296;16.924;2023-03-04T00:54:53;99673.06;;;1.58;97.69
49459;BME280;35354;51.296;16.924;2023-03-04T00:57:19;99668.84;;;1.53;97.60
49459;BME280;35354;51.296;16.924;2023-03-04T00:59:44;99684.91;;;1.68;97.54
49459;BME280;35354;51.296;16.924;2023-03-04T01:02:11;99649.16;;;1.50;97.58
49459;BME280;35354;51.296;16.924;2023-03-04T01:04:36;99680.72;;;1.60;97.55
49459;BME280;35354;51.296;16.924;2023-03-04T01:07:02;99672.09;;;1.68;97.39
49459;BME280;35354;51.296;16.924;2023-03-04T01:09:27;99638.09;;;1.45;97.65
49459;BME280;35354;51.296;16.924;2023-03-04T01:11:53;99666.16;;;1.65;97.24
49459;BME280;35354;51.296;16.924;2023-03-04T01:14:18;99637.13;;;1.55;97.49
49459;BME280;35354;51.296;16.924;2023-03-04T01:16:43;99646.38;;;1.71;97.21
49459;BME280;35354;51.296;16.924;2023-03-04T01:19:09;99652.38;;;1.73;96.81
49459;BME280;35354;51.296;16.924;2023-03-04T01:21:34;99609.72;;;1.59;96.79
49459;BME280;35354;51.296;16.924;2023-03-04T01:24:00;99639.50;;;1.75;96.48
49459;BME280;35354;51.296;16.924;2023-03-04T01:26:25;99619.88;;;1.68;96.55
49459;BME280;35354;51.296;16.924;2023-03-04T01:28:51;99608.72;;;1.72;95.79
49459;BME280;35354;51.296;16.924;2023-03-04T01:31:16;99623.09;;;1.85;95.88
49459;BME280;35354;51.296;16.924;2023-03-04T01:33:41;99597.56;;;1.74;95.96
49459;BME280;35354;51.296;16.924;2023-03-04T01:36:07;99585.66;;;1.67;95.70
49459;BME280;35354;51.296;16.924;2023-03-04T01:38:32;99602.72;;;1.74;95.66
49459;BME280;35354;51.296;16.924;2023-03-04T01:40:57;99578.03;;;1.61;95.31
49459;BME280;35354;51.296;16.924;2023-03-04T01:43:28;99572.00;;;1.64;95.24
49459;BME280;35354;51.296;16.924;2023-03-04T01:45:55;99568.69;;;1.57;95.35
49459;BME280;35354;51.296;16.924;2023-03-04T01:48:25;99582.38;;;1.58;95.06
49459;BME280;35354;51.296;16.924;2023-03-04T01:50:51;99583.22;;;1.58;95.29
49459;BME280;35354;51.296;16.924;2023-03-04T01:53:22;99590.81;;;1.67;94.61
49459;BME280;35354;51.296;16.924;2023-03-04T01:55:48;99589.06;;;1.71;94.67
49459;BME280;35354;51.296;16.924;2023-03-04T01:58:14;99570.44;;;1.50;94.67
49459;BME280;35354;51.296;16.924;2023-03-04T02:00:39;99611.25;;;1.75;94.43
49459;BME280;35354;51.296;16.924;2023-03-04T02:03:10;99591.66;;;1.68;93.91
49459;BME280;35354;51.296;16.924;2023-03-04T02:05:41;99602.69;;;1.76;93.83
49459;BME280;35354;51.296;16.924;2023-03-04T02:08:08;99562.75;;;1.50;93.76
49459;BME280;35354;51.296;16.924;2023-03-04T02:10:33;99602.69;;;1.78;93.86
49459;BME280;35354;51.296;16.924;2023-03-04T02:13:00;99573.75;;;1.62;93.90
49459;BME280;35354;51.296;16.924;2023-03-04T02:15:26;99582.31;;;1.62;93.77
49459;BME280;35354;51.296;16.924;2023-03-04T02:17:51;99581.56;;;1.53;93.43
49459;BME280;35354;51.296;16.924;2023-03-04T02:23:26;99602.81;;;1.65;93.19
49459;BME280;35354;51.296;16.924;2023-03-04T02:28:38;99571.31;;;1.51;93.29
49459;BME280;35354;51.296;16.924;2023-03-04T02:31:03;99580.69;;;1.54;93.10
49459;BME280;35354;51.296;16.924;2023-03-04T02:33:29;99578.03;;;1.63;92.91
49459;BME280;35354;51.296;16.924;2023-03-04T02:35:54;99577.91;;;1.72;93.15
49459;BME280;35354;51.296;16.924;2023-03-04T02:38:20;99581.31;;;1.74;92.76
49459;BME280;35354;51.296;16.924;2023-03-04T02:40:47;99557.44;;;1.64;92.79
49459;BME280;35354;51.296;16.924;2023-03-04T02:43:15;99560.91;;;1.63;92.73
49459;BME280;35354;51.296;16.924;2023-03-04T02:48:07;99566.69;;;1.82;92.99
49459;BME280;35354;51.296;16.924;2023-03-04T02:50:41;99564.22;;;1.71;92.48
49459;BME280;35354;51.296;16.924;2023-03-04T02:53:08;99540.41;;;1.59;92.26
49459;BME280;35354;51.296;16.924;2023-03-04T02:55:33;99544.69;;;1.60;92.72
49459;BME280;35354;51.296;16.924;2023-03-04T02:57:58;99558.28;;;1.68;92.16
49459;BME280;35354;51.296;16.924;2023-03-04T03:00:24;99548.00;;;1.68;92.07
49459;BME280;35354;51.296;16.924;2023-03-04T03:02:50;99568.47;;;1.72;92.09
49459;BME280;35354;51.296;16.924;2023-03-04T03:05:15;99560.69;;;1.80;92.00
49459;BME280;35354;51.296;16.924;2023-03-04T03:07:41;99530.06;;;1.66;91.54
49459;BME280;35354;51.296;16.924;2023-03-04T03:10:06;99530.09;;;1.63;91.34
49459;BME280;35354;51.296;16.924;2023-03-04T03:12:32;99525.03;;;1.57;91.40
49459;BME280;35354;51.296;16.924;2023-03-04T03:14:57;99530.94;;;1.64;90.92
49459;BME280;35354;51.296;16.924;2023-03-04T03:17:22;99524.13;;;1.60;91.03
49459;BME280;35354;51.296;16.924;2023-03-04T03:19:48;99548.81;;;1.73;90.51
49459;BME280;35354;51.296;16.924;2023-03-04T03:22:13;99558.97;;;1.81;90.20
49459;BME280;35354;51.296;16.924;2023-03-04T03:24:38;99525.84;;;1.62;90.41
49459;BME280;35354;51.296;16.924;2023-03-04T03:27:04;99553.84;;;1.81;90.46
49459;BME280;35354;51.296;16.924;2023-03-04T03:29:29;99527.44;;;1.71;90.42
49459;BME280;35354;51.296;16.924;2023-03-04T03:31:54;99523.97;;;1.75;90.28
49459;BME280;35354;51.296;16.924;2023-03-04T03:34:21;99495.97;;;1.57;90.28
49459;BME280;35354;51.296;16.924;2023-03-04T03:36:46;99513.69;;;1.75;90.04
49459;BME280;35354;51.296;16.924;2023-03-04T03:39:11;99510.38;;;1.67;90.48
49459;BME280;35354;51.296;16.924;2023-03-04T03:41:37;99490.69;;;1.66;90.71
49459;BME280;35354;51.296;16.924;2023-03-04T03:44:02;99510.19;;;1.82;90.44
49459;BME280;35354;51.296;16.924;2023-03-04T03:46:27;99519.53;;;1.86;90.16
49459;BME280;35354;51.296;16.924;2023-03-04T03:48:53;99519.47;;;1.89;90.15
49459;BME280;35354;51.296;16.924;2023-03-04T03:51:19;99460.09;;;1.52;90.26
49459;BME280;35354;51.296;16.924;2023-03-04T03:53:44;99504.94;;;1.88;90.10
49459;BME280;35354;51.296;16.924;2023-03-04T03:56:09;99473.53;;;1.68;90.25
49459;BME280;35354;51.296;16.924;2023-03-04T03:58:35;99493.78;;;1.89;89.99
49459;BME280;35354;51.296;16.924;2023-03-04T04:01:00;99504.19;;;1.82;90.20
49459;BME280;35354;51.296;16.924;2023-03-04T04:03:25;99494.78;;;1.81;89.88
49459;BME280;35354;51.296;16.924;2023-03-04T04:05:51;99505.72;;;1.93;89.98
49459;BME280;35354;51.296;16.924;2023-03-04T04:08:16;99491.44;;;1.74;89.88
49459;BME280;35354;51.296;16.924;2023-03-04T04:10:42;99504.97;;;1.87;89.79
49459;BME280;35354;51.296;16.924;2023-03-04T04:13:07;99487.13;;;1.78;90.25
49459;BME280;35354;51.296;16.924;2023-03-04T04:15:33;99487.00;;;1.85;90.13
49459;BME280;35354;51.296;16.924;2023-03-04T04:17:58;99490.47;;;1.81;90.13
49459;BME280;35354;51.296;16.924;2023-03-04T04:20:23;99488.81;;;1.79;90.47
49459;BME280;35354;51.296;16.924;2023-03-04T04:22:49;99499.81;;;1.88;89.90
49459;BME280;35354;51.296;16.924;2023-03-04T04:25:15;99471.66;;;1.81;90.02
49459;BME280;35354;51.296;16.924;2023-03-04T04:27:40;99490.34;;;1.92;89.53
49459;BME280;35354;51.296;16.924;2023-03-04T04:30:06;99474.06;;;1.93;89.93
49459;BME280;35354;51.296;16.924;2023-03-04T04:32:32;99474.84;;;1.99;89.72
49459;BME280;35354;51.296;16.924;2023-03-04T04:34:58;99468.81;;;2.00;89.62
49459;BME280;35354;51.296;16.924;2023-03-04T04:37:23;99445.94;;;1.84;89.42
49459;BME280;35354;51.296;16.924;2023-03-04T04:39:48;99429.84;;;1.74;89.48
49459;BME280;35354;51.296;16.924;2023-03-04T04:42:16;99436.53;;;1.84;89.37
49459;BME280;35354;51.296;16.924;2023-03-04T04:44:41;99462.00;;;1.99;89.39
49459;BME280;35354;51.296;16.924;2023-03-04T04:47:06;99452.84;;;1.82;89.55
49459;BME280;35354;51.296;16.924;2023-03-04T04:49:32;99440.84;;;1.81;89.63
49459;BME280;35354;51.296;16.924;2023-03-04T04:51:57;99412.78;;;1.68;89.52
49459;BME280;35354;51.296;16.924;2023-03-04T04:54:23;99446.72;;;1.90;89.59
49459;BME280;35354;51.296;16.924;2023-03-04T04:56:49;99451.94;;;1.86;89.11
49459;BME280;35354;51.296;16.924;2023-03-04T04:59:14;99431.56;;;1.73;89.20
49459;BME280;35354;51.296;16.924;2023-03-04T05:01:39;99435.84;;;1.73;89.44
49459;BME280;35354;51.296;16.924;2023-03-04T05:04:05;99468.13;;;1.91;89.31
49459;BME280;35354;51.296;16.924;2023-03-04T05:06:30;99462.97;;;1.89;89.51
49459;BME280;35354;51.296;16.924;2023-03-04T05:08:56;99439.16;;;1.80;88.94
49459;BME280;35354;51.296;16.924;2023-03-04T05:11:21;99446.78;;;1.86;89.12
49459;BME280;35354;51.296;16.924;2023-03-04T05:13:47;99464.59;;;1.96;88.94
49459;BME280;35354;51.296;16.924;2023-03-04T05:16:14;99456.84;;;1.98;89.14
49459;BME280;35354;51.296;16.924;2023-03-04T05:18:39;99466.22;;;2.04;88.96
49459;BME280;35354;51.296;16.924;2023-03-04T05:21:05;99459.41;;;1.98;88.77
49459;BME280;35354;51.296;16.924;2023-03-04T05:23:33;99442.41;;;1.92;88.80
49459;BME280;35354;51.296;16.924;2023-03-04T05:26:00;99457.72;;;1.97;88.70
49459;BME280;35354;51.296;16.924;2023-03-04T05:28:25;99466.06;;;2.13;88.64
49459;BME280;35354;51.296;16.924;2023-03-04T05:30:51;99440.66;;;1.94;88.46
49459;BME280;35354;51.296;16.924;2023-03-04T05:33:16;99469.56;;;2.09;88.77
49459;BME280;35354;51.296;16.924;2023-03-04T05:35:43;99456.75;;;2.06;88.54
49459;BME280;35354;51.296;16.924;2023-03-04T05:38:12;99459.38;;;2.03;88.78
49459;BME280;35354;51.296;16.924;2023-03-04T05:40:39;99449.88;;;2.08;88.46
49459;BME280;35354;51.296;16.924;2023-03-04T05:43:05;99466.22;;;2.04;88.47
49459;BME280;35354;51.296;16.924;2023-03-04T05:45:30;99467.03;;;2.07;88.83
49459;BME280;35354;51.296;16.924;2023-03-04T05:47:56;99435.53;;;1.94;88.54
49459;BME280;35354;51.296;16.924;2023-03-04T05:50:22;99451.63;;;2.04;88.31
49459;BME280;35354;51.296;16.924;2023-03-04T05:52:48;99481.34;;;2.22;88.13
49459;BME280;35354;51.296;16.924;2023-03-04T05:55:14;99462.69;;;2.09;88.20
49459;BME280;35354;51.296;16.924;2023-03-04T05:57:40;99476.19;;;2.23;88.03
49459;BME280;35354;51.296;16.924;2023-03-04T06:00:06;99459.25;;;2.12;88.21
49459;BME280;35354;51.296;16.924;2023-03-04T06:02:35;99449.88;;;2.08;87.81
49459;BME280;35354;51.296;16.924;2023-03-04T06:05:02;99442.13;;;2.11;88.00
49459;BME280;35354;51.296;16.924;2023-03-04T06:07:28;99454.84;;;2.18;88.07
49459;BME280;35354;51.296;16.924;2023-03-04T06:09:53;99445.63;;;2.05;88.38
49459;BME280;35354;51.296;16.924;2023-03-04T06:12:18;99441.47;;;1.96;88.71
49459;BME280;35354;51.296;16.924;2023-03-04T06:14:44;99458.50;;;2.04;88.63
49459;BME280;35354;51.296;16.924;2023-03-04T06:17:09;99467.69;;;2.20;88.70
49459;BME280;35354;51.296;16.924;2023-03-04T06:19:35;99459.13;;;2.19;88.63
49459;BME280;35354;51.296;16.924;2023-03-04T06:22:02;99475.19;;;2.32;88.55
49459;BME280;35354;51.296;16.924;2023-03-04T06:24:27;99445.47;;;2.14;88.50
49459;BME280;35354;51.296;16.924;2023-03-04T06:26:53;99455.81;;;2.11;88.63
49459;BME280;35354;51.296;16.924;2023-03-04T06:29:18;99448.97;;;2.10;88.49
49459;BME280;35354;51.296;16.924;2023-03-04T06:31:44;99448.97;;;2.10;88.65
49459;BME280;35354;51.296;16.924;2023-03-04T06:34:09;99451.47;;;2.15;88.53
49459;BME280;35354;51.296;16.924;2023-03-04T06:36:35;99472.66;;;2.29;88.88
49459;BME280;35354;51.296;16.924;2023-03-04T06:39:04;99457.28;;;2.28;88.83
49459;BME280;35354;51.296;16.924;2023-03-04T06:41:30;99471.69;;;2.36;88.86
49459;BME280;35354;51.296;16.924;2023-03-04T06:43:56;99476.03;;;2.33;88.73
49459;BME280;35354;51.296;16.924;2023-03-04T06:46:22;99454.75;;;2.23;89.06
49459;BME280;35354;51.296;16.924;2023-03-04T06:48:47;99457.25;;;2.29;89.03
49459;BME280;35354;51.296;16.924;2023-03-04T06:51:13;99469.28;;;2.25;89.39
49459;BME280;35354;51.296;16.924;2023-03-04T06:53:39;99484.53;;;2.38;89.56
49459;BME280;35354;51.296;16.924;2023-03-04T06:56:05;99472.44;;;2.44;89.58
49459;BME280;35354;51.296;16.924;2023-03-04T06:58:30;99447.81;;;2.30;89.50
49459;BME280;35354;51.296;16.924;2023-03-04T07:00:56;99469.06;;;2.41;89.73
49459;BME280;35354;51.296;16.924;2023-03-04T07:03:21;99465.84;;;2.27;90.45
49459;BME280;35354;51.296;16.924;2023-03-04T07:05:47;99497.25;;;2.45;90.51
49459;BME280;35354;51.296;16.924;2023-03-04T07:08:14;99489.50;;;2.47;90.66
49459;BME280;35354;51.296;16.924;2023-03-04T07:10:39;99472.44;;;2.43;90.88
49459;BME280;35354;51.296;16.924;2023-03-04T07:13:05;99462.13;;;2.46;90.74
49459;BME280;35354;51.296;16.924;2023-03-04T07:15:30;99490.28;;;2.54;91.14
49459;BME280;35354;51.296;16.924;2023-03-04T07:17:55;99465.53;;;2.46;91.03
49459;BME280;35354;51.296;16.924;2023-03-04T07:20:21;99483.38;;;2.56;91.65
49459;BME280;35354;51.296;16.924;2023-03-04T07:22:47;99496.91;;;2.65;91.81
49459;BME280;35354;51.296;16.924;2023-03-04T07:25:12;99472.34;;;2.47;92.02
49459;BME280;35354;51.296;16.924;2023-03-04T07:27:37;99472.34;;;2.47;92.27
49459;BME280;35354;51.296;16.924;2023-03-04T07:30:05;99462.06;;;2.49;91.93
49459;BME280;35354;51.296;16.924;2023-03-04T07:32:31;99493.47;;;2.66;92.13
49459;BME280;35354;51.296;16.924;2023-03-04T07:34:58;99495.00;;;2.77;92.19
49459;BME280;35354;51.296;16.924;2023-03-04T07:37:24;99488.97;;;2.79;92.30
49459;BME280;35354;51.296;16.924;2023-03-04T07:39:49;99477.94;;;2.72;92.56
49459;BME280;35354;51.296;16.924;2023-03-04T07:42:14;99474.56;;;2.69;92.91
49459;BME280;35354;51.296;16.924;2023-03-04T07:44:40;99462.63;;;2.66;92.71
49459;BME280;35354;51.296;16.924;2023-03-04T07:47:05;99488.84;;;2.85;92.77
49459;BME280;35354;51.296;16.924;2023-03-04T07:49:30;99484.63;;;2.81;92.92
49459;BME280;35354;51.296;16.924;2023-03-04T07:51:55;99486.28;;;2.85;93.26
49459;BME280;35354;51.296;16.924;2023-03-04T07:54:21;99468.41;;;2.78;93.45
49459;BME280;35354;51.296;16.924;2023-03-04T07:56:46;99481.13;;;2.85;93.63
49459;BME280;35354;51.296;16.924;2023-03-04T07:59:11;99483.72;;;2.85;93.97
49459;BME280;35354;51.296;16.924;2023-03-04T08:01:37;99454.78;;;2.72;93.89
49459;BME280;35354;51.296;16.924;2023-03-04T08:04:05;99461.47;;;2.83;94.23
49459;BME280;35354;51.296;16.924;2023-03-04T08:06:31;99442.56;;;2.85;93.92
49459;BME280;35354;51.296;16.924;2023-03-04T08:08:59;99458.75;;;2.90;94.09
49459;BME280;35354;51.296;16.924;2023-03-04T08:11:25;99435.72;;;2.84;93.91
49459;BME280;35354;51.296;16.924;2023-03-04T08:13:50;99448.53;;;2.86;94.31
49459;BME280;35354;51.296;16.924;2023-03-04T08:16:18;99459.44;;;3.00;94.44
49459;BME280;35354;51.296;16.924;2023-03-04T08:18:45;99433.94;;;2.88;94.34
49459;BME280;35354;51.296;16.924;2023-03-04T08:21:13;99450.03;;;2.97;94.42
49459;BME280;35354;51.296;16.924;2023-03-04T08:23:39;99449.06;;;3.03;94.43
49459;BME280;35354;51.296;16.924;2023-03-04T08:26:30;99456.50;;;3.18;94.00
49459;BME280;35354;51.296;16.924;2023-03-04T08:29:00;99438.53;;;3.17;93.69
49459;BME280;35354;51.296;16.924;2023-03-04T08:31:26;99429.88;;;3.19;93.60
49459;BME280;35354;51.296;16.924;2023-03-04T08:33:51;99434.16;;;3.20;93.52
49459;BME280;35354;51.296;16.924;2023-03-04T08:36:17;99407.00;;;3.06;93.41
49459;BME280;35354;51.296;16.924;2023-03-04T08:38:42;99432.41;;;3.22;93.33
49459;BME280;35354;51.296;16.924;2023-03-04T08:41:08;99428.94;;;3.23;93.13
49459;BME280;35354;51.296;16.924;2023-03-04T08:43:34;99426.34;;;3.25;93.08
49459;BME280;35354;51.296;16.924;2023-03-04T08:45:59;99445.91;;;3.34;93.27
49459;BME280;35354;51.296;16.924;2023-03-04T08:48:25;99401.75;;;3.10;93.33
49459;BME280;35354;51.296;16.924;2023-03-04T08:50:51;99446.66;;;3.39;93.23
49459;BME280;35354;51.296;16.924;2023-03-04T08:53:18;99427.09;;;3.30;93.22
49459;BME280;35354;51.296;16.924;2023-03-04T08:55:44;99449.19;;;3.42;93.76
49459;BME280;35354;51.296;16.924;2023-03-04T08:58:09;99442.16;;;3.48;93.50
49459;BME280;35354;51.296;16.924;2023-03-04T09:00:37;99455.72;;;3.57;93.10
49459;BME280;35354;51.296;16.924;2023-03-04T09:03:05;99444.53;;;3.58;93.37
49459;BME280;35354;51.296;16.924;2023-03-04T09:05:31;99440.94;;;3.65;93.33
49459;BME280;35354;51.296;16.924;2023-03-04T09:07:57;99430.81;;;3.57;92.73
49459;BME280;35354;51.296;16.924;2023-03-04T09:10:23;99449.50;;;3.67;92.39
49459;BME280;35354;51.296;16.924;2023-03-04T09:12:48;99444.38;;;3.65;92.66
49459;BME280;35354;51.296;16.924;2023-03-04T09:15:14;99450.25;;;3.70;92.46
49459;BME280;35354;51.296;16.924;2023-03-04T09:17:40;99402.78;;;3.43;92.76
49459;BME280;35354;51.296;16.924;2023-03-04T09:20:08;99434.69;;;3.77;92.93
49459;BME280;35354;51.296;16.924;2023-03-04T09:22:35;99436.31;;;3.79;92.58
49459;BME280;35354;51.296;16.924;2023-03-04T09:25:00;99449.16;;;3.82;92.69
49459;BME280;35354;51.296;16.924;2023-03-04T09:27:26;99422.81;;;3.69;92.78
49459;BME280;35354;51.296;16.924;2023-03-04T09:29:51;99431.28;;;3.74;93.02
49459;BME280;35354;51.296;16.924;2023-03-04T09:32:16;99423.44;;;3.81;93.16
49459;BME280;35354;51.296;16.924;2023-03-04T09:34:42;99431.94;;;3.84;94.03
49459;BME280;35354;51.296;16.924;2023-03-04T09:37:07;99437.78;;;3.91;94.54
49459;BME280;35354;51.296;16.924;2023-03-04T09:39:33;99448.06;;;3.92;94.37
49459;BME280;35354;51.296;16.924;2023-03-04T09:41:59;99417.34;;;3.83;95.05
49459;BME280;35354;51.296;16.924;2023-03-04T09:44:42;99415.66;;;3.82;95.61
49459;BME280;35354;51.296;16.924;2023-03-04T09:47:15;99435.66;;;4.08;95.88
49459;BME280;35354;51.296;16.924;2023-03-04T09:49:43;99420.41;;;4.00;95.85
49459;BME280;35354;51.296;16.924;2023-03-04T09:58:13;99420.56;;;4.29;96.38
49459;BME280;35354;51.296;16.924;2023-03-04T10:00:44;99417.63;;;4.42;96.47
49459;BME280;35354;51.296;16.924;2023-03-04T10:03:21;99420.00;;;4.52;95.58
49459;BME280;35354;51.296;16.924;2023-03-04T10:06:01;99409.59;;;4.55;95.71
49459;BME280;35354;51.296;16.924;2023-03-04T10:09:02;99412.75;;;4.66;95.26
49459;BME280;35354;51.296;16.924;2023-03-04T10:11:31;99392.16;;;4.63;95.12
49459;BME280;35354;51.296;16.924;2023-03-04T10:22:14;99396.59;;;4.90;93.53
49459;BME280;35354;51.296;16.924;2023-03-04T10:24:41;99385.56;;;4.85;93.08
49459;BME280;35354;51.296;16.924;2023-03-04T10:27:10;99376.25;;;4.80;92.68
49459;BME280;35354;51.296;16.924;2023-03-04T10:29:37;99377.31;;;4.72;92.91
49459;BME280;35354;51.296;16.924;2023-03-04T10:32:03;99364.53;;;4.68;93.30
49459;BME280;35354;51.296;16.924;2023-03-04T10:34:29;99374.75;;;4.71;93.38
49459;BME280;35354;51.296;16.924;2023-03-04T10:39:36;99391.66;;;4.83;92.80
49459;BME280;35354;51.296;16.924;2023-03-04T10:42:24;99392.47;;;4.85;92.63
49459;BME280;35354;51.296;16.924;2023-03-04T10:47:22;99364.16;;;4.82;92.40
49459;BME280;35354;51.296;16.924;2023-03-04T10:49:54;99377.50;;;4.97;92.09
49459;BME280;35354;51.296;16.924;2023-03-04T10:54:54;99372.63;;;4.87;92.38
49459;BME280;35354;51.296;16.924;2023-03-04T10:59:58;99370.41;;;5.04;92.10
49459;BME280;35354;51.296;16.924;2023-03-04T11:02:34;99351.63;;;4.99;91.24
49459;BME280;35354;51.296;16.924;2023-03-04T11:05:24;99374.03;;;5.26;90.66
49459;BME280;35354;51.296;16.924;2023-03-04T11:07:54;99351.69;;;5.27;90.13
49459;BME280;35354;51.296;16.924;2023-03-04T11:15:23;99318.13;;;5.25;89.99
49459;BME280;35354;51.296;16.924;2023-03-04T11:18:05;99345.78;;;5.50;89.13
49459;BME280;35354;51.296;16.924;2023-03-04T11:20:42;99346.63;;;5.52;88.89
49459;BME280;35354;51.296;16.924;2023-03-04T11:23:31;99368.59;;;5.65;89.06
49459;BME280;35354;51.296;16.924;2023-03-04T11:26:08;99337.81;;;5.58;88.13
49459;BME280;35354;51.296;16.924;2023-03-04T11:31:34;99345.56;;;5.84;88.08
49459;BME280;35354;51.296;16.924;2023-03-04T11:36:55;99356.13;;;6.31;86.85
49459;BME280;35354;51.296;16.924;2023-03-04T11:44:50;99319.47;;;6.20;85.41
49459;BME280;35354;51.296;16.924;2023-03-04T11:55:53;99323.47;;;5.75;86.10
49459;BME280;35354;51.296;16.924;2023-03-04T11:58:37;99342.81;;;5.90;86.50
49459;BME280;35354;51.296;16.924;2023-03-04T12:01:08;99342.09;;;5.85;86.73
49459;BME280;35354;51.296;16.924;2023-03-04T12:08:50;99336.28;;;5.79;88.60
49459;BME280;35354;51.296;16.924;2023-03-04T12:12:00;99341.03;;;5.64;89.28
49459;BME280;35354;51.296;16.924;2023-03-04T12:14:55;99310.69;;;5.44;88.98
49459;BME280;35354;51.296;16.924;2023-03-04T12:17:35;99333.94;;;5.71;89.32
49459;BME280;35354;51.296;16.924;2023-03-04T12:42:49;99271.34;;;5.36;88.04
49459;BME280;35354;51.296;16.924;2023-03-04T12:45:23;99311.84;;;5.62;88.50
49459;BME280;35354;51.296;16.924;2023-03-04T12:48:05;99323.69;;;5.69;89.48
49459;BME280;35354;51.296;16.924;2023-03-04T12:53:42;99290.81;;;5.73;89.04
49459;BME280;35354;51.296;16.924;2023-03-04T12:56:22;99289.88;;;5.75;89.85
49459;BME280;35354;51.296;16.924;2023-03-04T12:58:49;99308.88;;;5.73;91.14
49459;BME280;35354;51.296;16.924;2023-03-04T13:01:22;99319.81;;;5.81;92.21
49459;BME280;35354;51.296;16.924;2023-03-04T13:03:57;99319.88;;;5.80;93.43
49459;BME280;35354;51.296;16.924;2023-03-04T13:06:44;99321.97;;;5.68;93.90
49459;BME280;35354;51.296;16.924;2023-03-04T13:11:53;99288.81;;;5.81;95.21
49459;BME280;35354;51.296;16.924;2023-03-04T13:14:24;99305.53;;;5.97;95.38
49459;BME280;35354;51.296;16.924;2023-03-04T13:16:55;99296.16;;;5.95;94.46
49459;BME280;35354;51.296;16.924;2023-03-04T13:22:25;99300.97;;;6.06;95.08
49459;BME280;35354;51.296;16.924;2023-03-04T13:24:52;99292.44;;;6.04;94.11
49459;BME280;35354;51.296;16.924;2023-03-04T13:27:49;99301.38;;;6.18;93.17
49459;BME280;35354;51.296;16.924;2023-03-04T13:32:57;99288.47;;;6.18;93.59
49459;BME280;35354;51.296;16.924;2023-03-04T13:43:44;99288.94;;;6.05;92.75
49459;BME280;35354;51.296;16.924;2023-03-04T13:51:25;99288.16;;;6.03;91.88
49459;BME280;35354;51.296;16.924;2023-03-04T14:04:15;99276.00;;;6.05;90.44
49459;BME280;35354;51.296;16.924;2023-03-04T14:06:43;99280.44;;;6.01;90.75
49459;BME280;35354;51.296;16.924;2023-03-04T14:09:19;99268.59;;;5.94;91.52
49459;BME280;35354;51.296;16.924;2023-03-04T14:11:46;99263.41;;;5.95;91.39
49459;BME280;35354;51.296;16.924;2023-03-04T14:14:13;99257.72;;;5.84;92.15
49459;BME280;35354;51.296;16.924;2023-03-04T14:16:46;99245.34;;;5.67;92.25
49459;BME280;35354;51.296;16.924;2023-03-04T14:19:37;99279.44;;;5.79;92.93
49459;BME280;35354;51.296;16.924;2023-03-04T14:22:17;99293.25;;;5.78;93.50
49459;BME280;35354;51.296;16.924;2023-03-04T14:27:22;99270.28;;;5.42;95.24
49459;BME280;35354;51.296;16.924;2023-03-04T14:29:59;99287.19;;;5.52;95.98
49459;BME280;35354;51.296;16.924;2023-03-04T14:32:25;99276.13;;;5.48;95.43
49459;BME280;35354;51.296;16.924;2023-03-04T14:34:56;99258.56;;;5.32;96.38
49459;BME280;35354;51.296;16.924;2023-03-04T14:37:25;99257.59;;;5.36;96.58
49459;BME280;35354;51.296;16.924;2023-03-04T14:39:55;99281.91;;;5.55;96.14
49459;BME280;35354;51.296;16.924;2023-03-04T14:42:23;99287.84;;;5.59;95.89
49459;BME280;35354;51.296;16.924;2023-03-04T14:44:50;99262.25;;;5.51;96.35
49459;BME280;35354;51.296;16.924;2023-03-04T14:47:23;99277.50;;;5.59;95.94
49459;BME280;35354;51.296;16.924;2023-03-04T14:49:51;99248.78;;;5.41;96.53
49459;BME280;35354;51.296;16.924;2023-03-04T14:52:32;99276.81;;;5.54;96.59
49459;BME280;35354;51.296;16.924;2023-03-04T14:55:07;99275.84;;;5.56;96.19
49459;BME280;35354;51.296;16.924;2023-03-04T14:57:33;99275.06;;;5.54;96.95
49459;BME280;35354;51.296;16.924;2023-03-04T15:02:51;99260.78;;;5.44;95.72
49459;BME280;35354;51.296;16.924;2023-03-04T15:05:19;99245.38;;;5.39;95.99
49459;BME280;35354;51.296;16.924;2023-03-04T15:10:25;99259.06;;;5.43;96.12
49459;BME280;35354;51.296;16.924;2023-03-04T15:12:56;99261.31;;;5.54;95.57